Time;durP1;ratioP1;P1;durP2;ratioP2;P2;SDS_P1;SDS_P2;PMS_P1;PMS_P2;Temp;Humidity;BMP_temperature;BMP_pressure;BME280_temperature;BME280_humidity;BME280_pressure;Samples;Min_cycle;Max_cycle;Signal;HPM_P1;HPM_P2
2021/12/21 00:00:14;;;;;;;1.38;0.85;;;;;;;8.04;100.00;100966.66;5030715;28;20198;-57
2021/12/21 00:03:18;;;;;;;0.30;0.30;;;;;;;8.02;100.00;100971.88;5030475;28;20056;-57
2021/12/21 00:06:21;;;;;;;1.48;0.93;;;;;;;8.03;100.00;100956.78;5015992;28;20044;-57
2021/12/21 00:09:24;;;;;;;0.20;0.15;;;;;;;8.01;100.00;100964.78;5030859;28;20512;-57
2021/12/21 00:12:31;;;;;;;0.65;0.65;;;;;;;8.00;100.00;100954.88;5030672;28;20067;-58
2021/12/21 00:21:45;;;;;;;3.03;1.42;;;;;;;8.07;100.00;100957.50;5030708;28;20052;-57
2021/12/21 00:24:49;;;;;;;2.78;0.45;;;;;;;7.93;100.00;100946.72;5018951;28;20612;-57
2021/12/21 00:27:52;;;;;;;0.68;0.55;;;;;;;7.98;100.00;100940.66;5029907;28;20545;-57
2021/12/21 00:30:55;;;;;;;0.63;0.40;;;;;;;7.98;100.00;100937.88;5029537;28;20076;-57
2021/12/21 00:33:59;;;;;;;0.73;0.68;;;;;;;7.97;100.00;100933.56;5029283;28;20044;-57
2021/12/21 00:37:02;;;;;;;0.50;0.47;;;;;;;7.86;100.00;100933.03;5030499;28;20092;-57
2021/12/21 00:40:06;;;;;;;0.50;0.50;;;;;;;7.89;100.00;100924.59;5030025;28;20056;-57
2021/12/21 00:43:09;;;;;;;1.02;0.98;;;;;;;7.90;100.00;100922.63;5030292;28;20057;-57
2021/12/21 00:46:12;;;;;;;0.95;0.68;;;;;;;7.89;100.00;100912.72;5030108;28;20115;-57
2021/12/21 00:49:16;;;;;;;7.22;0.65;;;;;;;7.85;100.00;100912.81;5030577;28;20052;-57
2021/12/21 00:52:19;;;;;;;1.73;0.95;;;;;;;7.70;100.00;100905.25;5028849;28;20133;-57
2021/12/21 00:55:23;;;;;;;0.43;0.40;;;;;;;7.89;100.00;100904.41;5030024;28;20579;-57
2021/12/21 00:58:26;;;;;;;1.85;0.60;;;;;;;7.96;100.00;100912.56;5026832;28;20386;-57
2021/12/21 01:01:29;;;;;;;0.30;0.20;;;;;;;7.94;100.00;100901.13;5025977;28;20063;-56
2021/12/21 01:04:37;;;;;;;0.77;0.73;;;;;;;7.88;100.00;100905.63;5033733;28;20061;-57
2021/12/21 01:07:44;;;;;;;8.68;0.60;;;;;;;7.90;100.00;100908.75;5032941;28;20463;-57
2021/12/21 01:14:15;;;;;;;0.68;0.63;;;;;;;7.96;100.00;100893.16;5023945;28;20053;-57
2021/12/21 01:17:49;;;;;;;0.98;0.65;;;;;;;7.97;100.00;100892.72;5023513;28;20144;-57
2021/12/21 01:20:53;;;;;;;0.22;0.22;;;;;;;7.91;100.00;100888.13;5017738;28;20056;-56
2021/12/21 01:27:20;;;;;;;1.50;0.90;;;;;;;7.87;100.00;100892.97;5021053;28;20064;-57
2021/12/21 01:30:44;;;;;;;2.30;0.52;;;;;;;7.92;100.00;100895.25;5033325;28;20091;-57
2021/12/21 01:37:04;;;;;;;1.38;0.80;;;;;;;7.50;100.00;100892.22;5019290;28;20053;-57
2021/12/21 01:40:28;;;;;;;0.75;0.63;;;;;;;7.81;100.00;100889.16;5033365;28;20056;-57
2021/12/21 01:43:47;;;;;;;1.10;0.35;;;;;;;7.80;100.00;100876.50;5022865;28;20431;-56
2021/12/21 01:50:13;;;;;;;;;;;;;;;7.77;100.00;100874.59;5033610;28;20152;-57
2021/12/21 01:53:16;;;;;;;8.48;0.98;;;;;;;7.78;100.00;100879.69;5020534;28;19928;-57
2021/12/21 01:56:20;;;;;;;1.02;0.43;;;;;;;7.76;100.00;100873.03;5033448;28;20157;-57
2021/12/21 01:59:23;;;;;;;4.68;0.80;;;;;;;7.79;100.00;100880.50;5033155;28;20139;-57
2021/12/21 02:02:26;;;;;;;0.17;0.17;;;;;;;7.80;100.00;100873.72;5032239;28;20059;-58
2021/12/21 02:05:29;;;;;;;0.65;0.65;;;;;;;7.81;100.00;100864.19;5032330;28;20053;-56
2021/12/21 02:08:33;;;;;;;0.35;0.35;;;;;;;7.77;100.00;100872.63;5032379;28;20051;-56
2021/12/21 02:11:36;;;;;;;0.30;0.30;;;;;;;7.73;100.00;100868.34;5032302;28;20098;-57
2021/12/21 02:14:42;;;;;;;0.17;0.17;;;;;;;7.76;100.00;100862.72;5016235;28;20598;-57
2021/12/21 02:20:57;;;;;;;0.45;0.45;;;;;;;7.68;100.00;100857.78;5031800;28;20118;-57
2021/12/21 02:24:06;;;;;;;1.05;0.90;;;;;;;7.65;100.00;100860.19;5032843;28;20148;-57
2021/12/21 02:27:26;;;;;;;0.30;0.30;;;;;;;7.57;100.00;100861.56;5017389;28;20178;-57
2021/12/21 02:30:29;;;;;;;4.40;1.13;;;;;;;7.58;100.00;100865.91;5031732;28;20551;-56
2021/12/21 02:33:33;;;;;;;2.05;0.40;;;;;;;7.64;100.00;100869.72;5032247;28;20428;-57
2021/12/21 02:36:38;;;;;;;0.68;0.47;;;;;;;7.71;100.00;100873.56;5032198;28;20077;-57
2021/12/21 02:39:41;;;;;;;0.25;0.20;;;;;;;7.68;100.00;100863.31;5020881;28;20402;-57
2021/12/21 02:42:44;;;;;;;0.32;0.32;;;;;;;7.77;100.00;100860.72;5031244;28;20595;-57
2021/12/21 02:45:47;;;;;;;0.93;0.47;;;;;;;7.76;100.00;100865.50;5032033;28;20103;-56
2021/12/21 02:48:51;;;;;;;6.32;1.13;;;;;;;7.87;100.00;100876.34;5031660;28;20110;-56
2021/12/21 02:51:53;;;;;;;0.22;0.22;;;;;;;7.80;100.00;100873.72;5026903;28;20052;-57
2021/12/21 02:54:57;;;;;;;3.70;0.43;;;;;;;7.73;100.00;100865.59;5029704;28;20067;-56
2021/12/21 02:58:00;;;;;;;9.20;1.00;;;;;;;7.73;100.00;100860.03;5032125;28;20053;-57
2021/12/21 03:01:06;;;;;;;15.23;0.63;;;;;;;7.67;100.00;100861.78;5031816;28;20095;-57
2021/12/21 03:04:09;;;;;;;1.60;0.57;;;;;;;7.79;100.00;100864.63;5027829;28;20060;-57
2021/12/21 03:10:31;;;;;;;13.25;0.60;;;;;;;7.71;100.00;100852.13;5031556;28;20108;-56
2021/12/21 03:16:56;;;;;;;0.63;0.40;;;;;;;7.64;100.00;100858.63;5031261;28;20049;-57
2021/12/21 03:19:59;;;;;;;1.55;0.22;;;;;;;7.62;100.00;100863.81;5030592;28;20563;-57
2021/12/21 03:23:02;;;;;;;0.80;0.40;;;;;;;7.59;100.00;100861.94;5030727;28;20137;-56
2021/12/21 03:26:05;;;;;;;0.43;0.43;;;;;;;7.54;100.00;100851.34;5031257;28;20099;-57
2021/12/21 03:29:08;;;;;;;0.30;0.30;;;;;;;7.55;100.00;100849.34;5031134;28;20087;-58
2021/12/21 03:32:11;;;;;;;0.60;0.30;;;;;;;7.64;100.00;100844.75;5020928;28;20141;-57
2021/12/21 03:35:14;;;;;;;0.75;0.32;;;;;;;6.68;100.00;100845.25;5029939;28;20083;-57
2021/12/21 03:38:18;;;;;;;0.93;0.40;;;;;;;6.60;100.00;100852.13;5031158;28;20045;-57
2021/12/21 03:41:23;;;;;;;0.25;0.25;;;;;;;6.60;100.00;100851.34;5024143;28;20103;-56
2021/12/21 03:44:27;;;;;;;0.60;0.50;;;;;;;6.56;100.00;100845.88;5030945;28;20136;-57
2021/12/21 03:47:31;;;;;;;0.40;0.35;;;;;;;7.18;100.00;100841.47;5030696;28;20048;-56
2021/12/21 03:50:34;;;;;;;0.38;0.38;;;;;;;7.59;100.00;100839.75;5031005;28;20056;-57
2021/12/21 03:53:37;;;;;;;0.68;0.68;;;;;;;7.59;100.00;100831.44;5015903;28;20103;-55
2021/12/21 03:56:42;;;;;;;0.70;0.50;;;;;;;7.68;100.00;100827.28;5030649;28;20095;-56
2021/12/21 03:59:46;;;;;;;0.30;0.30;;;;;;;7.72;100.00;100825.19;5016573;28;20421;-56
2021/12/21 04:02:49;;;;;;;0.85;0.68;;;;;;;7.52;100.00;100823.28;5026677;28;20263;-56
2021/12/21 04:05:52;;;;;;;0.45;0.30;;;;;;;7.51;100.00;100824.47;5011382;28;20060;-56
2021/12/21 04:08:55;;;;;;;0.52;0.52;;;;;;;7.56;100.00;100826.75;5025344;28;20516;-56
2021/12/21 04:12:00;;;;;;;1.58;0.65;;;;;;;7.58;100.00;100827.09;5017913;28;20084;-56
2021/12/21 04:15:06;;;;;;;2.05;0.68;;;;;;;7.60;100.00;100824.66;5026338;28;20056;-56
2021/12/21 04:18:13;;;;;;;2.03;0.38;;;;;;;7.64;100.00;100828.13;5030534;28;20171;-56
2021/12/21 04:21:16;;;;;;;1.60;0.50;;;;;;;7.63;100.00;100818.28;5029958;28;20091;-56
2021/12/21 04:24:19;;;;;;;0.28;0.25;;;;;;;7.58;100.00;100827.09;5019776;28;20107;-57
2021/12/21 04:27:22;;;;;;;1.20;0.80;;;;;;;7.63;100.00;100823.81;5030238;28;20123;-56
2021/12/21 04:30:25;;;;;;;3.17;0.77;;;;;;;7.63;100.00;100818.28;5030425;28;20137;-56
2021/12/21 04:33:28;;;;;;;0.20;0.10;;;;;;;7.62;100.00;100815.94;5030299;28;20049;-57
2021/12/21 04:36:31;;;;;;;0.63;0.45;;;;;;;7.64;100.00;100813.50;5034602;28;20128;-55
2021/12/21 04:39:42;;;;;;;4.88;0.85;;;;;;;7.58;100.00;100816.00;5034108;28;20080;-56
2021/12/21 04:42:45;;;;;;;0.55;0.43;;;;;;;7.55;100.00;100816.88;5034335;28;20061;-55
2021/12/21 04:45:47;;;;;;;1.38;0.93;;;;;;;7.52;100.00;100812.19;5034020;28;20358;-57
2021/12/21 04:48:52;;;;;;;4.47;0.90;;;;;;;7.57;100.00;100819.22;5034496;28;20080;-57
2021/12/21 04:51:54;;;;;;;1.00;0.63;;;;;;;7.57;100.00;100811.69;5034586;28;20053;-58
2021/12/21 04:54:58;;;;;;;2.83;1.23;;;;;;;7.51;100.00;100805.06;5034204;28;20088;-58
2021/12/21 04:58:01;;;;;;;2.67;0.57;;;;;;;7.52;100.00;100812.19;5018140;28;20370;-57
2021/12/21 05:01:04;;;;;;;6.15;1.13;;;;;;;7.53;100.00;100807.44;5021509;28;20052;-58
2021/12/21 05:04:07;;;;;;;0.30;0.25;;;;;;;7.50;100.00;100803.53;5019241;28;20144;-57
2021/12/21 05:07:12;;;;;;;12.02;2.22;;;;;;;7.51;100.00;100793.22;5034084;28;20135;-58
2021/12/21 05:10:15;;;;;;;11.95;2.38;;;;;;;7.52;100.00;100790.03;5033776;28;20056;-58
2021/12/21 05:13:20;;;;;;;0.63;0.63;;;;;;;7.49;100.00;100779.78;5028366;28;20410;-57
2021/12/21 05:16:23;;;;;;;14.98;1.42;;;;;;;7.43;100.00;100787.06;5020798;28;20056;-58
2021/12/21 05:19:26;;;;;;;11.15;2.00;;;;;;;7.47;100.00;100787.75;5033824;28;20497;-57
2021/12/21 05:22:29;;;;;;;3.08;0.60;;;;;;;7.56;100.00;100795.47;5033181;28;20057;-57
2021/12/21 05:25:32;;;;;;;23.70;2.00;;;;;;;7.57;100.00;100786.75;5033766;28;20083;-58
2021/12/21 05:28:35;;;;;;;5.38;1.33;;;;;;;7.54;100.00;100787.59;5021109;28;20492;-57
2021/12/21 05:31:38;;;;;;;11.40;1.48;;;;;;;7.54;100.00;100776.50;5033011;28;20192;-58
2021/12/21 05:34:41;;;;;;;0.30;0.30;;;;;;;7.58;100.00;100779.97;5021169;28;20099;-58
2021/12/21 05:37:46;;;;;;;1.80;1.08;;;;;;;7.62;100.00;100768.81;5033411;28;20130;-57
2021/12/21 05:40:49;;;;;;;5.38;2.47;;;;;;;7.59;100.00;100777.97;5033240;28;20076;-58
2021/12/21 05:43:52;;;;;;;7.93;1.27;;;;;;;7.56;100.00;100784.38;5033021;28;20543;-58
2021/12/21 05:46:55;;;;;;;2.95;0.75;;;;;;;7.48;100.00;100781.00;5032343;28;20505;-58
2021/12/21 05:49:59;;;;;;;1.65;1.52;;;;;;;7.47;100.00;100782.22;5032918;28;20097;-58
2021/12/21 05:53:03;;;;;;;2.65;1.17;;;;;;;7.53;100.00;100786.06;5033222;28;20057;-58
2021/12/21 05:56:05;;;;;;;8.20;1.83;;;;;;;7.59;100.00;100800.94;5032826;28;20052;-58
2021/12/21 05:59:08;;;;;;;8.48;1.85;;;;;;;7.64;100.00;100805.94;5032668;28;20102;-58
2021/12/21 06:02:11;;;;;;;0.52;0.50;;;;;;;7.62;100.00;100800.06;5032401;28;20075;-58
2021/12/21 06:05:15;;;;;;;10.68;1.35;;;;;;;7.61;100.00;100792.97;5033459;28;20056;-58
2021/12/21 06:08:21;;;;;;;4.53;1.85;;;;;;;7.62;100.00;100793.75;5032546;28;20111;-58
2021/12/21 06:11:24;;;;;;;6.78;1.23;;;;;;;7.60;100.00;100790.66;5032976;28;20525;-58
2021/12/21 06:14:56;;;;;;;0.20;0.10;;;;;;;7.48;100.00;100777.44;5021712;28;20102;-58
2021/12/21 06:28:08;;;;;;;3.78;2.47;;;;;;;7.17;100.00;100785.28;5032518;28;19924;-58
2021/12/21 06:31:12;;;;;;;4.35;2.28;;;;;;;7.22;100.00;100787.56;5032131;28;20044;-58
2021/12/21 06:34:15;;;;;;;14.63;2.33;;;;;;;7.25;100.00;100788.69;5032027;28;20175;-58
2021/12/21 06:37:18;;;;;;;15.27;5.50;;;;;;;7.26;100.00;100782.72;5031330;28;20084;-58
2021/12/21 06:40:21;;;;;;;4.10;1.60;;;;;;;7.18;100.00;100775.00;5032497;28;20570;-58
2021/12/21 06:43:25;;;;;;;3.28;1.92;;;;;;;7.25;100.00;100770.09;5032526;28;20254;-58
2021/12/21 06:52:56;;;;;;;5.38;0.70;;;;;;;7.08;100.00;100767.72;5018130;28;20100;-57
2021/12/21 06:55:59;;;;;;;3.40;1.48;;;;;;;7.07;100.00;100769.69;5031911;28;20084;-58
2021/12/21 06:59:02;;;;;;;1.52;0.95;;;;;;;7.14;100.00;100760.44;5020883;28;20060;-58
2021/12/21 07:02:07;;;;;;;1.10;1.00;;;;;;;7.15;100.00;100757.22;5031534;28;20076;-58
2021/12/21 07:05:10;;;;;;;0.35;0.25;;;;;;;7.06;100.00;100762.56;5031909;28;20100;-58
2021/12/21 07:08:16;;;;;;;0.55;0.40;;;;;;;7.00;100.00;100769.06;5030577;28;21197;-58
2021/12/21 07:11:44;;;;;;;12.50;0.55;;;;;;;7.09;100.00;100772.81;5019809;28;20141;-58
2021/12/21 07:18:14;;;;;;;;;;;;;;;7.17;100.00;100773.44;5032077;28;20516;-58
2021/12/21 07:21:17;;;;;;;1.35;0.47;;;;;;;7.17;100.00;100768.66;5018409;28;19928;-58
2021/12/21 07:24:20;;;;;;;2.47;0.77;;;;;;;7.14;100.00;100769.53;5031293;28;20106;-58
2021/12/21 07:27:23;;;;;;;3.60;0.93;;;;;;;7.12;100.00;100771.97;5031464;28;20044;-58
2021/12/21 07:30:27;;;;;;;0.22;0.22;;;;;;;7.08;100.00;100764.94;5031006;28;20088;-59
2021/12/21 07:33:29;;;;;;;0.75;0.40;;;;;;;7.08;100.00;100764.94;5029445;28;20159;-57
2021/12/21 07:36:34;;;;;;;4.88;1.50;;;;;;;7.07;100.00;100774.44;5030584;28;20076;-57
2021/12/21 07:39:38;;;;;;;2.92;1.77;;;;;;;7.02;100.00;100778.50;5030987;28;20136;-58
2021/12/21 07:42:41;;;;;;;6.15;1.23;;;;;;;6.93;100.00;100775.53;5030417;28;20484;-58
2021/12/21 07:45:44;;;;;;;1.40;0.75;;;;;;;6.93;100.00;100769.97;5030560;28;20529;-58
2021/12/21 07:48:47;;;;;;;3.58;1.42;;;;;;;6.97;100.00;100769.94;5029729;28;20067;-58
2021/12/21 07:51:50;;;;;;;11.55;0.70;;;;;;;6.98;100.00;100777.78;5030458;28;20111;-58
2021/12/21 07:54:53;;;;;;;1.02;0.50;;;;;;;7.01;100.00;100773.41;5030888;28;20120;-58
2021/12/21 07:57:56;;;;;;;0.32;0.30;;;;;;;7.05;100.00;100776.88;5031047;28;20103;-58
2021/12/21 08:01:02;;;;;;;3.17;0.90;;;;;;;7.09;100.00;100778.34;5030590;28;20076;-58
2021/12/21 08:04:09;;;;;;;0.65;0.65;;;;;;;7.08;100.00;100784.31;5027992;28;20080;-58
2021/12/21 08:07:17;;;;;;;1.00;0.90;;;;;;;7.10;100.00;100779.91;5030668;28;20044;-58
2021/12/21 08:10:30;;;;;;;2.75;1.30;;;;;;;7.15;100.00;100786.91;5030932;28;20052;-58
2021/12/21 08:13:33;;;;;;;8.50;1.30;;;;;;;7.22;100.00;100782.00;5029253;28;20051;-57
2021/12/21 08:16:36;;;;;;;3.33;1.30;;;;;;;7.26;100.00;100781.91;5030603;28;20138;-57
2021/12/21 08:19:40;;;;;;;0.25;0.25;;;;;;;7.15;100.00;100784.94;5030407;28;20057;-58
2021/12/21 08:22:43;;;;;;;0.95;0.73;;;;;;;7.02;100.00;100789.56;5026228;28;20072;-57
2021/12/21 08:25:46;;;;;;;2.92;0.68;;;;;;;7.03;100.00;100793.13;5018171;28;20049;-58
2021/12/21 08:28:49;;;;;;;0.80;0.63;;;;;;;7.04;100.00;100791.94;5030248;28;20119;-58
2021/12/21 08:31:53;;;;;;;1.90;0.70;;;;;;;6.98;100.00;100797.19;5029403;28;20413;-58
2021/12/21 08:34:56;;;;;;;4.93;1.63;;;;;;;6.98;100.00;100799.94;5029943;28;20064;-58
2021/12/21 08:38:05;;;;;;;4.25;1.05;;;;;;;6.79;100.00;100797.97;5029702;28;20072;-58
2021/12/21 08:41:09;;;;;;;2.65;1.25;;;;;;;6.84;100.00;100800.25;5030025;28;20187;-58
2021/12/21 08:44:12;;;;;;;0.82;0.65;;;;;;;6.92;100.00;100804.44;5029521;28;20056;-58
2021/12/21 08:47:16;;;;;;;3.15;2.85;;;;;;;7.05;100.00;100802.56;5029266;28;20525;-58
2021/12/21 08:50:18;;;;;;;4.97;1.73;;;;;;;7.08;100.00;100804.47;5029766;28;20072;-58
2021/12/21 08:53:23;;;;;;;1.25;0.77;;;;;;;7.09;100.00;100806.03;5029941;28;20091;-58
2021/12/21 08:56:26;;;;;;;3.58;1.73;;;;;;;7.17;100.00;100806.69;5029981;28;20123;-59
2021/12/21 08:59:30;;;;;;;2.33;1.02;;;;;;;7.14;100.00;100815.84;5029225;28;20417;-57
2021/12/21 09:02:35;;;;;;;1.90;0.45;;;;;;;7.12;100.00;100805.19;5027555;28;20053;-57
2021/12/21 09:05:40;;;;;;;5.78;1.35;;;;;;;7.10;100.00;100806.84;5014947;28;20052;-57
2021/12/21 09:08:43;;;;;;;3.92;1.42;;;;;;;7.14;100.00;100813.84;5029615;28;20084;-58
2021/12/21 09:11:47;;;;;;;1.02;0.93;;;;;;;7.23;100.00;100816.81;5029752;28;20513;-58
2021/12/21 09:14:50;;;;;;;2.63;1.73;;;;;;;7.25;100.00;100814.41;5027651;28;20099;-58
2021/12/21 09:17:54;;;;;;;2.75;1.73;;;;;;;7.20;100.00;100809.38;5029784;28;20056;-59
2021/12/21 09:20:57;;;;;;;1.15;1.05;;;;;;;7.19;100.00;100810.56;5031439;28;20131;-58
2021/12/21 09:24:00;;;;;;;1.95;1.73;;;;;;;7.21;100.00;100805.38;5026561;28;20055;-54
2021/12/21 09:27:03;;;;;;;7.20;1.02;;;;;;;7.22;100.00;100806.94;5032954;28;20405;-54
2021/12/21 09:30:09;;;;;;;1.85;1.50;;;;;;;7.18;100.00;100808.22;5033625;28;20055;-54
2021/12/21 09:33:13;;;;;;;6.45;3.38;;;;;;;7.27;100.00;100806.44;5032971;28;20114;-54
2021/12/21 09:36:17;;;;;;;5.15;1.65;;;;;;;7.25;100.00;100808.88;5022039;28;20056;-54
2021/12/21 09:39:20;;;;;;;18.50;1.63;;;;;;;7.31;100.00;100812.69;5032928;28;20151;-54
2021/12/21 09:42:26;;;;;;;4.15;1.38;;;;;;;7.33;100.00;100810.25;5033593;28;20056;-54
2021/12/21 09:45:29;;;;;;;2.90;1.48;;;;;;;7.37;100.00;100815.72;5032171;28;20107;-55
2021/12/21 09:48:32;;;;;;;4.13;1.02;;;;;;;7.32;100.00;100814.22;5033134;28;20061;-54
2021/12/21 09:51:35;;;;;;;2.53;1.50;;;;;;;7.40;100.00;100799.03;5032635;28;20056;-54
2021/12/21 09:54:40;;;;;;;6.18;1.55;;;;;;;7.44;100.00;100805.25;5032855;28;20046;-54
2021/12/21 09:57:42;;;;;;;2.20;0.73;;;;;;;7.43;100.00;100800.91;5032666;28;20044;-54
2021/12/21 10:00:46;;;;;;;4.95;1.58;;;;;;;7.47;100.00;100803.63;5033083;28;20104;-54
2021/12/21 10:03:49;;;;;;;1.58;0.73;;;;;;;7.45;100.00;100804.03;5032036;28;20145;-54
2021/12/21 10:06:55;;;;;;;4.10;2.30;;;;;;;7.43;100.00;100797.34;5032921;28;20102;-54
2021/12/21 10:10:18;;;;;;;1.95;1.27;;;;;;;7.51;100.00;100796.75;5017012;28;20048;-54
2021/12/21 10:13:23;;;;;;;4.93;2.03;;;;;;;7.63;100.00;100792.53;5026910;28;20049;-54
2021/12/21 10:16:26;;;;;;;26.83;3.90;;;;;;;7.65;100.00;100796.44;5020146;28;20445;-54
2021/12/21 10:19:29;;;;;;;7.70;1.50;;;;;;;7.81;100.00;100789.34;5031849;28;20095;-55
2021/12/21 10:22:33;;;;;;;24.73;3.13;;;;;;;7.82;100.00;100790.91;5020888;28;20092;-54
2021/12/21 10:25:59;;;;;;;1.35;1.25;;;;;;;7.86;100.00;100797.91;5026055;28;20052;-54
2021/12/21 10:29:06;;;;;;;6.85;2.17;;;;;;;7.85;100.00;100801.91;5032452;28;20111;-53
2021/12/21 10:32:27;;;;;;;13.73;3.33;;;;;;;7.77;100.00;100799.72;5031912;28;20052;-53
2021/12/21 10:35:31;;;;;;;8.95;3.03;;;;;;;7.75;100.00;100802.16;5031627;28;20072;-54
2021/12/21 10:38:43;;;;;;;1.45;1.02;;;;;;;7.77;100.00;100799.72;5031955;28;20084;-53
2021/12/21 10:41:46;;;;;;;2.47;1.17;;;;;;;7.71;100.00;100796.69;5031762;28;20191;-53
2021/12/21 10:44:50;;;;;;;12.18;1.52;;;;;;;7.80;100.00;100798.84;5031759;28;20087;-54
2021/12/21 10:47:53;;;;;;;0.60;0.52;;;;;;;7.83;100.00;100798.78;5031739;28;20095;-54
2021/12/21 10:50:57;;;;;;;10.95;2.10;;;;;;;7.86;100.00;100791.59;5032372;28;20401;-54
2021/12/21 10:54:00;;;;;;;3.17;1.48;;;;;;;7.91;100.00;100789.06;5031100;28;20048;-53
2021/12/21 10:57:06;;;;;;;7.13;0.75;;;;;;;7.97;100.00;100790.09;5031778;28;20103;-53
2021/12/21 11:00:14;;;;;;;1.98;0.57;;;;;;;7.91;100.00;100777.97;5031820;28;20052;-54
2021/12/21 11:03:29;;;;;;;2.80;1.00;;;;;;;7.86;100.00;100780.50;5031669;28;20148;-54
2021/12/21 11:06:35;;;;;;;0.88;0.80;;;;;;;7.88;100.00;100778.84;5017221;28;20091;-54
2021/12/21 11:09:38;;;;;;;7.85;1.98;;;;;;;7.96;100.00;100779.44;5031366;28;20048;-54
2021/12/21 11:12:47;;;;;;;7.10;0.95;;;;;;;8.04;100.00;100775.25;5028799;28;20099;-54
2021/12/21 11:15:53;;;;;;;0.60;0.52;;;;;;;8.05;100.00;100772.06;5031851;28;20429;-54
2021/12/21 11:18:56;;;;;;;3.50;0.90;;;;;;;8.09;100.00;100769.19;5031560;28;20555;-54
2021/12/21 11:22:00;;;;;;;0.80;0.77;;;;;;;8.17;100.00;100765.00;5031310;28;20184;-53
2021/12/21 11:25:06;;;;;;;1.58;1.33;;;;;;;8.15;100.00;100759.13;5031423;28;20534;-53
2021/12/21 11:28:14;;;;;;;0.82;0.70;;;;;;;8.35;100.00;100762.56;5031132;28;20087;-53
2021/12/21 11:31:17;;;;;;;0.22;0.22;;;;;;;8.49;100.00;100753.84;5031220;28;20119;-54
2021/12/21 11:34:23;;;;;;;1.67;1.08;;;;;;;8.50;100.00;100758.19;5031021;28;20520;-53
2021/12/21 11:37:29;;;;;;;3.90;0.95;;;;;;;8.54;100.00;100747.75;5031195;28;20406;-53
2021/12/21 11:40:39;;;;;;;1.77;0.90;;;;;;;8.64;100.00;100752.22;5030466;28;20040;-54
2021/12/21 11:44:03;;;;;;;0.77;0.65;;;;;;;8.71;100.00;100754.78;5030322;28;20102;-54
2021/12/21 11:47:09;;;;;;;7.15;1.67;;;;;;;8.77;100.00;100755.81;5019834;28;20370;-54
2021/12/21 11:50:12;;;;;;;3.20;0.77;;;;;;;8.82;100.00;100760.03;5030580;28;20184;-53
2021/12/21 11:53:18;;;;;;;0.77;0.40;;;;;;;8.83;100.00;100753.28;5030290;28;20056;-54
2021/12/21 11:56:24;;;;;;;0.90;0.30;;;;;;;8.77;100.00;100755.81;5030886;28;20389;-53
2021/12/21 11:59:28;;;;;;;12.98;1.10;;;;;;;8.68;100.00;100741.81;5030813;28;20060;-53
2021/12/21 12:02:32;;;;;;;9.52;0.82;;;;;;;8.79;100.00;100741.50;5029920;28;20079;-54
2021/12/21 12:05:35;;;;;;;5.05;0.80;;;;;;;8.75;100.00;100738.81;5030754;28;20130;-54
2021/12/21 12:08:46;;;;;;;2.25;0.65;;;;;;;8.70;100.00;100741.34;5030452;28;20136;-54
2021/12/21 12:11:49;;;;;;;0.75;0.57;;;;;;;8.67;100.00;100737.47;5030477;28;20552;-53
2021/12/21 12:15:00;;;;;;;0.10;0.10;;;;;;;8.75;100.00;100730.47;5017118;28;20048;-53
2021/12/21 12:18:03;;;;;;;0.85;0.25;;;;;;;8.74;100.00;100731.72;5029968;28;20056;-54
2021/12/21 12:21:19;;;;;;;8.55;1.95;;;;;;;8.60;100.00;100726.56;5030163;28;20061;-54
2021/12/21 12:24:24;;;;;;;4.43;1.30;;;;;;;8.70;100.00;100719.94;5030377;28;20052;-54
2021/12/21 12:27:29;;;;;;;2.28;1.45;;;;;;;8.65;100.00;100726.03;5030732;28;20048;-54
2021/12/21 12:30:33;;;;;;;2.70;1.25;;;;;;;8.65;100.00;100720.47;5029491;28;20057;-54
2021/12/21 12:33:39;;;;;;;17.60;3.20;;;;;;;8.59;100.00;100725.00;5030174;28;20039;-54
2021/12/21 12:36:51;;;;;;;5.40;2.13;;;;;;;8.60;100.00;100720.25;5030433;28;20047;-54
2021/12/21 12:40:00;;;;;;;3.58;1.55;;;;;;;8.63;100.00;100711.81;5030438;28;20060;-54
2021/12/21 12:43:17;;;;;;;1.48;1.38;;;;;;;8.78;100.00;100732.38;5028857;28;20099;-54
2021/12/21 12:46:26;;;;;;;1.00;0.85;;;;;;;8.82;100.00;100724.72;5030262;28;20504;-53
2021/12/21 12:49:33;;;;;;;0.90;0.70;;;;;;;8.78;100.00;100715.72;5029915;28;20444;-53
2021/12/21 12:52:36;;;;;;;4.50;1.42;;;;;;;8.84;100.00;100715.94;5029997;28;20144;-54
2021/12/21 12:55:55;;;;;;;5.90;1.65;;;;;;;8.86;100.00;100714.28;5032434;28;20091;-54
2021/12/21 12:59:03;;;;;;;0.55;0.50;;;;;;;8.88;100.00;100705.53;5033886;28;20103;-53
2021/12/21 13:02:09;;;;;;;2.17;1.02;;;;;;;8.87;100.00;100701.97;5033440;28;20475;-53
2021/12/21 13:05:12;;;;;;;1.98;0.85;;;;;;;8.91;100.00;100688.72;5019401;28;20064;-54
2021/12/21 13:08:17;;;;;;;2.42;1.75;;;;;;;9.07;100.00;100685.81;5033356;28;20060;-54
2021/12/21 13:11:24;;;;;;;4.85;1.15;;;;;;;9.01;100.00;100687.59;5018877;28;20188;-54
2021/12/21 13:14:28;;;;;;;17.20;0.90;;;;;;;9.10;100.00;100684.16;5032768;28;20055;-54
2021/12/21 13:17:30;;;;;;;2.35;1.27;;;;;;;9.11;100.00;100671.84;5018970;28;20061;-54
2021/12/21 13:20:35;;;;;;;23.75;1.30;;;;;;;9.09;100.00;100671.50;5032293;28;20084;-53
2021/12/21 13:23:38;;;;;;;1.40;1.13;;;;;;;9.12;100.00;100676.16;5033373;28;20119;-53
2021/12/21 13:26:55;;;;;;;2.83;0.85;;;;;;;9.05;100.00;100671.59;5033324;28;20114;-54
2021/12/21 13:30:05;;;;;;;1.27;0.63;;;;;;;8.89;100.00;100668.97;5024315;28;20087;-53
2021/12/21 13:33:08;;;;;;;1.50;1.33;;;;;;;8.76;100.00;100679.28;5032747;28;20056;-54
2021/12/21 13:36:11;;;;;;;5.38;0.50;;;;;;;8.79;100.00;100666.50;5024558;28;20052;-53
2021/12/21 13:39:20;;;;;;;0.85;0.55;;;;;;;8.82;100.00;100651.72;5016434;28;20051;-53
2021/12/21 13:42:27;;;;;;;4.40;1.67;;;;;;;8.78;100.00;100639.94;5033479;28;20049;-53
2021/12/21 13:45:30;;;;;;;0.50;0.43;;;;;;;8.73;100.00;100644.06;5018145;28;20417;-54
2021/12/21 13:48:35;;;;;;;3.20;0.80;;;;;;;8.60;100.00;100634.94;5032830;28;20429;-54
2021/12/21 13:51:50;;;;;;;10.70;1.00;;;;;;;8.53;100.00;100629.63;5032270;28;20390;-54
2021/12/21 13:54:53;;;;;;;2.55;1.40;;;;;;;8.56;100.00;100623.16;5032164;28;20052;-53
2021/12/21 13:57:59;;;;;;;0.82;0.82;;;;;;;8.60;100.00;100629.38;5033091;28;20056;-54
2021/12/21 14:01:03;;;;;;;1.17;0.35;;;;;;;8.65;100.00;100630.84;5032950;28;20152;-53
2021/12/21 14:04:10;;;;;;;1.00;0.43;;;;;;;8.67;100.00;100623.63;5032945;28;20048;-53
2021/12/21 14:07:13;;;;;;;13.85;1.05;;;;;;;8.80;100.00;100623.63;5031619;28;20052;-54
2021/12/21 14:10:21;;;;;;;0.30;0.28;;;;;;;8.77;100.00;100630.06;5032762;28;20051;-53
2021/12/21 14:13:29;;;;;;;7.28;1.05;;;;;;;8.75;100.00;100630.50;5029844;28;20076;-57
2021/12/21 14:16:38;;;;;;;5.38;1.50;;;;;;;8.80;100.00;100629.97;5032698;28;20551;-54
2021/12/21 14:19:41;;;;;;;1.85;0.80;;;;;;;8.71;100.00;100635.38;5017909;28;20088;-53
2021/12/21 14:22:44;;;;;;;2.60;1.65;;;;;;;8.62;100.00;100635.28;5032544;28;20381;-53
2021/12/21 14:25:47;;;;;;;2.28;0.73;;;;;;;8.57;100.00;100629.50;5018484;28;20107;-53
2021/12/21 14:29:01;;;;;;;1.30;1.13;;;;;;;8.63;100.00;100642.38;5031127;28;20056;-55
2021/12/21 14:35:13;;;;;;;8.35;1.73;;;;;;;8.69;100.00;100632.28;5032404;28;20444;-53
2021/12/21 14:38:16;;;;;;;0.65;0.65;;;;;;;8.71;100.00;100618.72;5032377;28;20144;-53
2021/12/21 14:41:35;;;;;;;1.67;1.40;;;;;;;8.78;100.00;100618.50;5031932;28;20141;-54
2021/12/21 14:44:50;;;;;;;2.90;1.45;;;;;;;8.86;100.00;100619.06;5031106;28;20081;-54
2021/12/21 14:47:53;;;;;;;1.27;0.50;;;;;;;8.88;100.00;100624.97;5032417;28;20080;-54
2021/12/21 14:51:10;;;;;;;1.42;0.85;;;;;;;8.81;100.00;100628.75;5032527;28;20405;-53
2021/12/21 14:54:22;;;;;;;4.10;2.35;;;;;;;8.83;100.00;100617.97;5032039;28;20057;-53
2021/12/21 14:57:29;;;;;;;0.65;0.43;;;;;;;8.87;100.00;100615.84;5031697;28;20095;-53
2021/12/21 15:00:35;;;;;;;1.58;1.48;;;;;;;8.89;100.00;100602.28;5031840;28;20068;-54
2021/12/21 15:03:41;;;;;;;0.52;0.45;;;;;;;8.94;100.00;100598.19;5031552;28;20053;-54
2021/12/21 15:06:44;;;;;;;0.32;0.32;;;;;;;8.91;100.00;100599.84;5031874;28;20374;-54
2021/12/21 15:09:49;;;;;;;1.10;1.02;;;;;;;8.88;100.00;100608.31;5031582;28;20422;-53
2021/12/21 15:12:53;;;;;;;0.75;0.75;;;;;;;8.81;100.00;100603.75;5019778;28;20156;-53